createdAt,value
2022-07-25T00:00:11.907Z,100571.41
2022-07-25T00:02:39.007Z,100569.25
2022-07-25T00:05:06.245Z,100571.31
2022-07-25T00:07:32.929Z,100568.63
2022-07-25T00:09:59.572Z,100562.56
2022-07-25T00:12:26.237Z,100566.63
2022-07-25T00:14:52.869Z,100559.06
2022-07-25T00:17:19.460Z,100562.75
2022-07-25T00:19:46.072Z,100557.12
2022-07-25T00:22:12.631Z,100550.91
2022-07-25T00:24:39.223Z,100561.53
2022-07-25T00:27:06.071Z,100555.37
2022-07-25T00:29:32.681Z,100550.59
2022-07-25T00:31:59.293Z,100557.53
2022-07-25T00:34:25.917Z,100556.69
2022-07-25T00:36:52.547Z,100556.94
2022-07-25T00:39:19.158Z,100552.03
2022-07-25T00:41:45.826Z,100544.47
2022-07-25T00:44:41.627Z,100551.97
2022-07-25T00:47:08.233Z,100555.94
2022-07-25T00:49:34.836Z,100553.03
2022-07-25T00:52:01.622Z,100551.75
2022-07-25T00:54:28.230Z,100552.44
2022-07-25T00:56:54.856Z,100552.97
2022-07-25T00:59:21.428Z,100553.13
2022-07-25T01:01:48.511Z,100551.03
2022-07-25T01:04:15.672Z,100549.19
2022-07-25T01:06:42.318Z,100553.19
2022-07-25T01:09:08.983Z,100550.62
2022-07-25T01:11:35.603Z,100547.25
2022-07-25T01:14:02.323Z,100559.56
2022-07-25T01:16:29.251Z,100555.50
2022-07-25T01:18:55.878Z,100548.41
2022-07-25T01:21:23.712Z,100550.72
2022-07-25T01:23:50.556Z,100552.84
2022-07-25T01:26:17.174Z,100543.28
2022-07-25T01:28:43.800Z,100551.31
2022-07-25T01:31:10.437Z,100548.31
2022-07-25T01:33:37.101Z,100547.09
2022-07-25T01:36:03.932Z,100544.03
2022-07-25T01:38:30.527Z,100536.25
2022-07-25T01:40:57.134Z,100541.63
2022-07-25T01:43:23.757Z,100541.78
2022-07-25T01:45:50.392Z,100541.78
2022-07-25T01:48:17.038Z,100535.97
2022-07-25T01:50:46.641Z,100539.59
2022-07-25T01:53:13.260Z,100531.06
2022-07-25T01:55:39.855Z,100542.66
2022-07-25T01:58:07.414Z,100538.13
2022-07-25T02:00:34.556Z,100535.16
2022-07-25T02:03:19.691Z,100538.13
2022-07-25T02:05:46.270Z,100533.09
2022-07-25T02:08:12.897Z,100533.81
2022-07-25T02:10:39.522Z,100534.50
2022-07-25T02:13:06.152Z,100535.22
2022-07-25T02:15:32.749Z,100529.88
2022-07-25T02:17:59.412Z,100531.16
2022-07-25T02:20:26.020Z,100537.25
2022-07-25T02:22:52.608Z,100529.22
2022-07-25T02:25:19.285Z,100530.66
2022-07-25T02:27:45.866Z,100533.03
2022-07-25T02:30:12.852Z,100533.03
2022-07-25T02:32:39.479Z,100541.22
2022-07-25T02:35:13.163Z,100541.66
2022-07-25T02:37:40.057Z,100539.31
2022-07-25T02:40:07.398Z,100539.31
2022-07-25T02:42:34.004Z,100538.75
2022-07-25T02:45:00.676Z,100539.88
2022-07-25T02:47:27.398Z,100543.53
2022-07-25T02:49:54.006Z,100543.97
2022-07-25T02:52:20.629Z,100543.09
2022-07-25T02:54:47.225Z,100541.28
2022-07-25T02:57:13.876Z,100545.34
2022-07-25T02:59:40.475Z,100551.69
2022-07-25T03:02:07.123Z,100553.28
2022-07-25T03:04:33.908Z,100558.75
2022-07-25T03:07:00.539Z,100561.28
2022-07-25T03:09:27.144Z,100556.56
2022-07-25T03:11:53.784Z,100563.16
2022-07-25T03:14:20.555Z,100555.66
2022-07-25T03:16:47.192Z,100556.25
2022-07-25T03:19:14.425Z,100559.50
2022-07-25T03:21:41.034Z,100567.97
2022-07-25T03:24:08.038Z,100567.66
2022-07-25T03:26:34.813Z,100563.44
2022-07-25T03:29:01.434Z,100569.63
2022-07-25T03:31:28.633Z,100570.38
2022-07-25T03:33:55.306Z,100569.69
2022-07-25T03:36:21.909Z,100569.25
2022-07-25T03:38:48.522Z,100573.66
2022-07-25T03:41:15.134Z,100567.44
2022-07-25T03:43:41.752Z,100574.22
2022-07-25T03:46:08.447Z,100576.91
2022-07-25T03:48:35.193Z,100586.63
2022-07-25T03:51:06.724Z,100580.72
2022-07-25T03:53:34.038Z,100579.56
2022-07-25T03:56:00.628Z,100576.06
2022-07-25T03:58:27.045Z,100576.06
2022-07-25T04:00:53.725Z,100580.28
2022-07-25T04:03:20.645Z,100570.97
2022-07-25T04:05:47.856Z,100581.12
2022-07-25T04:08:14.753Z,100579.00
2022-07-25T04:10:41.390Z,100576.19
2022-07-25T04:13:08.470Z,100578.59
2022-07-25T04:15:35.075Z,100575.19
2022-07-25T04:18:01.721Z,100577.72
2022-07-25T04:20:29.433Z,100582.13
2022-07-25T04:22:56.048Z,100582.97
2022-07-25T04:25:22.725Z,100578.72
2022-07-25T04:27:49.307Z,100579.56
2022-07-25T04:30:24.040Z,100586.34
2022-07-25T04:32:51.623Z,100586.75
2022-07-25T04:35:18.243Z,100588.16
2022-07-25T04:37:44.856Z,100581.25
2022-07-25T04:40:12.046Z,100580.97
2022-07-25T04:42:38.671Z,100583.34
2022-07-25T04:45:05.716Z,100580.94
2022-07-25T04:47:32.326Z,100582.75
2022-07-25T04:49:59.120Z,100581.62
2022-07-25T04:52:25.769Z,100586.31
2022-07-25T04:54:52.386Z,100582.47
2022-07-25T04:57:19.138Z,100588.66
2022-07-25T04:59:46.023Z,100579.78
2022-07-25T05:02:12.702Z,100587.38
2022-07-25T05:04:44.822Z,100579.56
2022-07-25T05:07:11.904Z,100584.62
2022-07-25T05:09:38.544Z,100587.41
2022-07-25T05:12:05.258Z,100586.41
2022-07-25T05:14:31.915Z,100584.03
2022-07-25T05:16:59.110Z,100573.22
2022-07-25T05:19:26.088Z,100578.16
2022-07-25T05:21:52.853Z,100583.53
2022-07-25T05:24:19.439Z,100577.13
2022-07-25T05:26:46.062Z,100577.66
2022-07-25T05:29:12.700Z,100579.41
2022-07-25T05:31:39.410Z,100579.75
2022-07-25T05:34:06.451Z,100569.31
2022-07-25T05:36:33.370Z,100576.28
2022-07-25T05:39:00.183Z,100571.31
2022-07-25T05:41:27.334Z,100567.59
2022-07-25T05:43:54.075Z,100570.69
2022-07-25T05:46:20.727Z,100565.22
2022-07-25T05:48:47.503Z,100564.62
2022-07-25T05:51:14.202Z,100563.94
2022-07-25T05:53:41.068Z,100570.84
2022-07-25T05:56:07.830Z,100570.13
2022-07-25T05:58:34.492Z,100559.78
2022-07-25T06:01:01.130Z,100568.53
2022-07-25T06:03:27.837Z,100570.22
2022-07-25T06:05:55.792Z,100565.47
2022-07-25T06:08:22.491Z,100568.06
2022-07-25T06:10:50.453Z,100575.75
2022-07-25T06:13:17.133Z,100572.25
2022-07-25T06:15:47.342Z,100560.53
2022-07-25T06:18:13.962Z,100563.72
2022-07-25T06:20:40.571Z,100563.25
2022-07-25T06:23:07.181Z,100565.25
2022-07-25T06:25:33.780Z,100571.25
2022-07-25T06:28:01.231Z,100561.81
2022-07-25T06:30:27.872Z,100561.00
2022-07-25T06:32:54.448Z,100562.22
2022-07-25T06:35:23.115Z,100560.56
2022-07-25T06:37:49.771Z,100556.66
2022-07-25T06:40:16.424Z,100562.25
2022-07-25T06:42:44.685Z,100555.31
2022-07-25T06:45:11.820Z,100555.75
2022-07-25T06:47:38.869Z,100551.16
2022-07-25T06:50:11.310Z,100555.69
2022-07-25T06:52:38.654Z,100542.00
2022-07-25T06:55:05.745Z,100544.66
2022-07-25T06:57:32.489Z,100536.59
2022-07-25T06:59:59.101Z,100540.50
2022-07-25T07:02:25.701Z,100545.47
2022-07-25T07:04:52.351Z,100537.66
2022-07-25T07:07:18.950Z,100530.91
2022-07-25T07:09:45.600Z,100527.31
2022-07-25T07:12:12.218Z,100520.41
2022-07-25T07:14:39.401Z,100520.53
2022-07-25T07:17:06.003Z,100519.91
2022-07-25T07:19:32.645Z,100523.75
2022-07-25T07:21:59.574Z,100524.41
2022-07-25T07:24:26.192Z,100526.69
2022-07-25T07:26:53.843Z,100522.78
2022-07-25T07:29:20.540Z,100515.34
2022-07-25T07:31:47.347Z,100517.50
2022-07-25T07:34:16.395Z,100521.06
2022-07-25T07:36:43.477Z,100522.88
2022-07-25T07:39:10.083Z,100521.59
2022-07-25T07:41:36.700Z,100515.25
2022-07-25T07:44:03.507Z,100507.63
2022-07-25T07:46:30.172Z,100516.84
2022-07-25T07:48:56.896Z,100507.75
2022-07-25T07:51:23.599Z,100502.63
2022-07-25T07:54:08.463Z,100499.06
2022-07-25T07:56:35.079Z,100506.56
2022-07-25T07:59:01.697Z,100502.63
2022-07-25T08:01:28.382Z,100503.22
2022-07-25T08:03:55.018Z,100506.78
2022-07-25T08:06:21.636Z,100508.66
2022-07-25T08:08:48.245Z,100503.78
2022-07-25T08:11:14.819Z,100505.63
2022-07-25T08:13:41.486Z,100503.75
2022-07-25T08:16:08.462Z,100493.94
2022-07-25T08:18:35.143Z,100494.94
2022-07-25T08:21:03.466Z,100504.72
2022-07-25T08:23:31.973Z,100495.44
2022-07-25T08:25:59.373Z,100498.25
2022-07-25T08:28:25.965Z,100492.53
2022-07-25T08:30:52.703Z,100485.16
2022-07-25T08:33:19.358Z,100490.03
2022-07-25T08:35:47.252Z,100483.59
2022-07-25T08:38:14.010Z,100486.31
2022-07-25T08:40:40.714Z,100483.41
2022-07-25T08:43:13.056Z,100483.91
2022-07-25T08:45:45.703Z,100474.63
2022-07-25T08:48:12.365Z,100470.84
2022-07-25T08:50:39.388Z,100477.91
2022-07-25T08:53:31.662Z,100467.59
2022-07-25T08:55:52.703Z,100464.78
2022-07-25T08:58:19.371Z,100465.09
2022-07-25T09:00:46.164Z,100460.44
2022-07-25T09:03:13.417Z,100462.72
2022-07-25T09:05:40.214Z,100467.59
2022-07-25T09:08:11.335Z,100467.00
2022-07-25T09:10:39.258Z,100457.66
2022-07-25T09:13:07.925Z,100463.72
2022-07-25T09:15:35.934Z,100460.19
2022-07-25T09:18:06.013Z,100453.72
2022-07-25T09:20:47.377Z,100449.00
2022-07-25T09:23:35.001Z,100441.84
2022-07-25T09:26:11.810Z,100438.97
2022-07-25T09:28:45.687Z,100446.87
2022-07-25T09:31:13.522Z,100441.63
2022-07-25T09:33:56.361Z,100444.56
2022-07-25T09:36:23.189Z,100439.81
2022-07-25T09:38:53.133Z,100432.78
2022-07-25T09:41:19.929Z,100432.22
2022-07-25T09:43:46.667Z,100434.19
2022-07-25T09:46:13.418Z,100425.00
2022-07-25T09:48:40.639Z,100434.13
2022-07-25T09:51:07.406Z,100428.06
2022-07-25T09:53:34.142Z,100428.66
2022-07-25T09:56:00.873Z,100413.69
2022-07-25T09:58:27.947Z,100417.47
2022-07-25T10:00:57.489Z,100409.38
2022-07-25T10:03:48.254Z,100418.22
2022-07-25T10:06:25.006Z,100410.37
2022-07-25T10:08:51.730Z,100410.81
2022-07-25T10:11:19.592Z,100405.12
2022-07-25T10:13:46.242Z,100406.22
2022-07-25T10:16:30.979Z,100401.47
2022-07-25T10:18:58.567Z,100398.81
2022-07-25T10:21:27.656Z,100389.03
2022-07-25T10:24:02.614Z,100385.94
2022-07-25T10:26:29.488Z,100380.03
2022-07-25T10:28:56.353Z,100373.72
2022-07-25T10:31:31.950Z,100376.53
2022-07-25T10:34:00.400Z,100373.00
2022-07-25T10:36:33.656Z,100375.16
2022-07-25T10:39:01.108Z,100366.56
2022-07-25T10:41:28.795Z,100368.06
2022-07-25T10:44:01.650Z,100364.22
2022-07-25T10:46:30.790Z,100356.59
2022-07-25T10:49:02.236Z,100356.22
2022-07-25T10:51:31.289Z,100348.47
2022-07-25T10:53:57.916Z,100354.69
2022-07-25T10:56:26.344Z,100351.09
2022-07-25T10:59:01.194Z,100343.16
2022-07-25T11:01:32.629Z,100344.81
2022-07-25T11:04:03.324Z,100342.56
2022-07-25T11:06:29.985Z,100335.06
2022-07-25T11:08:57.908Z,100333.94
2022-07-25T11:11:38.084Z,100324.59
2022-07-25T11:14:05.378Z,100329.34
2022-07-25T11:16:32.007Z,100320.53
2022-07-25T11:18:58.679Z,100307.56
2022-07-25T11:21:25.661Z,100314.84
2022-07-25T11:23:52.497Z,100317.94
2022-07-25T11:26:19.091Z,100307.12
2022-07-25T11:28:47.897Z,100315.44
2022-07-25T11:31:15.489Z,100304.47
2022-07-25T11:33:43.424Z,100292.13
2022-07-25T11:36:10.917Z,100289.38
2022-07-25T11:38:38.883Z,100293.88
2022-07-25T11:41:05.852Z,100278.47
2022-07-25T11:43:32.510Z,100277.81
2022-07-25T11:46:07.834Z,100283.41
2022-07-25T11:48:39.483Z,100271.47
2022-07-25T11:51:24.315Z,100273.44
2022-07-25T11:53:51.202Z,100272.22
2022-07-25T11:59:10.235Z,100262.16
2022-07-25T12:01:39.171Z,100253.09
2022-07-25T12:04:24.517Z,100266.12
2022-07-25T12:06:51.164Z,100267.63
2022-07-25T12:09:19.732Z,100263.63
2022-07-25T12:11:46.957Z,100269.38
2022-07-25T12:14:13.923Z,100256.03
2022-07-25T12:16:40.716Z,100251.50
2022-07-25T12:19:18.207Z,100249.81
2022-07-25T12:21:45.217Z,100237.13
2022-07-25T12:24:11.784Z,100233.63
2022-07-25T12:26:38.389Z,100241.31
2022-07-25T12:29:05.255Z,100229.97
2022-07-25T12:31:32.231Z,100230.63
2022-07-25T12:33:59.317Z,100222.97
2022-07-25T12:36:25.969Z,100212.47
2022-07-25T12:38:52.585Z,100217.00
2022-07-25T12:41:22.686Z,100205.78
2022-07-25T12:43:49.819Z,100207.59
2022-07-25T12:46:16.762Z,100202.13
2022-07-25T12:48:44.087Z,100201.03
2022-07-25T12:51:10.995Z,100194.81
2022-07-25T12:53:42.043Z,100189.91
2022-07-25T12:56:09.246Z,100176.50
2022-07-25T12:58:36.630Z,100189.37
2022-07-25T13:01:03.808Z,100176.09
2022-07-25T13:03:30.485Z,100178.91
2022-07-25T13:05:57.174Z,100177.47
2022-07-25T13:08:23.766Z,100169.69
2022-07-25T13:10:50.376Z,100161.72
2022-07-25T13:13:16.956Z,100158.19
2022-07-25T13:15:43.594Z,100155.94
2022-07-25T13:18:10.221Z,100155.41
2022-07-25T13:20:37.547Z,100159.41
2022-07-25T13:23:05.140Z,100149.88
2022-07-25T13:25:33.789Z,100141.50
2022-07-25T13:28:00.464Z,100133.31
2022-07-25T13:30:27.605Z,100138.56
2022-07-25T13:32:54.224Z,100129.03
2022-07-25T13:35:22.556Z,100133.94
2022-07-25T13:37:51.052Z,100128.06
2022-07-25T13:40:17.861Z,100126.72
2022-07-25T13:42:44.492Z,100123.19
2022-07-25T13:45:11.256Z,100113.41
2022-07-25T13:47:37.918Z,100110.78
2022-07-25T13:50:04.879Z,100108.41
2022-07-25T13:52:31.509Z,100105.37
2022-07-25T13:54:58.129Z,100096.94
2022-07-25T13:57:24.740Z,100099.38
2022-07-25T13:59:51.356Z,100091.56
2022-07-25T14:02:18.064Z,100093.06
2022-07-25T14:04:44.761Z,100084.78
2022-07-25T14:07:11.331Z,100089.91
2022-07-25T14:09:38.800Z,100083.28
2022-07-25T14:12:05.476Z,100076.03
2022-07-25T14:14:32.090Z,100071.00
2022-07-25T14:16:58.766Z,100070.87
2022-07-25T14:19:25.492Z,100069.59
2022-07-25T14:21:52.076Z,100061.56
2022-07-25T14:24:18.691Z,100066.88
2022-07-25T14:26:45.331Z,100062.94
2022-07-25T14:29:12.239Z,100058.13
2022-07-25T14:31:39.770Z,100056.16
2022-07-25T14:34:06.569Z,100059.03
2022-07-25T14:36:33.581Z,100048.41
2022-07-25T14:39:00.271Z,100053.19
2022-07-25T14:41:27.030Z,100052.66
2022-07-25T14:43:53.891Z,100048.25
2022-07-25T14:46:20.704Z,100032.75
2022-07-25T14:48:47.748Z,100032.31
2022-07-25T14:51:14.395Z,100032.31
2022-07-25T14:53:41.026Z,100022.56
2022-07-25T14:56:07.756Z,100023.94
2022-07-25T14:58:34.704Z,100015.75
2022-07-25T15:01:01.671Z,100006.91
2022-07-25T15:03:28.354Z,100005.59
2022-07-25T15:05:54.966Z,100010.97
2022-07-25T15:08:21.561Z,100002.41
2022-07-25T15:10:48.207Z,99997.34
2022-07-25T15:13:30.523Z,99992.97
2022-07-25T15:15:58.038Z,99992.50
2022-07-25T15:18:24.650Z,99997.12
2022-07-25T15:20:51.982Z,99989.78
2022-07-25T15:23:19.786Z,99980.97
2022-07-25T15:26:03.904Z,99980.91
2022-07-25T15:28:34.987Z,99979.63
2022-07-25T15:31:01.843Z,99970.66
2022-07-25T15:33:28.568Z,99974.47
2022-07-25T15:35:55.235Z,99975.25
2022-07-25T15:38:21.914Z,99964.63
2022-07-25T15:40:48.577Z,99961.03
2022-07-25T15:43:15.224Z,99964.06
2022-07-25T15:45:42.582Z,99959.91
2022-07-25T15:48:10.021Z,99964.38
2022-07-25T15:50:38.123Z,99959.56
2022-07-25T15:53:04.983Z,99957.47
2022-07-25T15:55:32.135Z,99959.91
2022-07-25T15:57:58.877Z,99955.53
2022-07-25T16:00:29.467Z,99948.81
2022-07-25T16:02:56.644Z,99953.25
2022-07-25T16:05:23.503Z,99941.72
2022-07-25T16:07:50.092Z,99945.47
2022-07-25T16:10:16.720Z,99940.19
2022-07-25T16:12:43.345Z,99937.47
2022-07-25T16:15:10.372Z,99939.31
2022-07-25T16:17:37.483Z,99936.94
2022-07-25T16:20:06.379Z,99939.13
2022-07-25T16:22:33.917Z,99939.31
2022-07-25T16:25:03.269Z,99944.75
2022-07-25T16:27:30.095Z,99938.66
2022-07-25T16:29:56.909Z,99937.59
2022-07-25T16:32:23.598Z,99938.53
2022-07-25T16:34:50.292Z,99931.00
2022-07-25T16:37:16.906Z,99933.25
2022-07-25T16:39:43.484Z,99939.13
2022-07-25T16:42:10.122Z,99932.28
2022-07-25T16:44:36.716Z,99926.28
2022-07-25T16:47:03.577Z,99927.06
2022-07-25T16:49:30.223Z,99926.84
2022-07-25T16:51:56.949Z,99936.72
2022-07-25T16:54:23.891Z,99931.09
2022-07-25T16:56:54.149Z,99928.81
2022-07-25T16:59:22.247Z,99929.25
2022-07-25T17:01:48.970Z,99924.00
2022-07-25T17:04:15.625Z,99927.53
2022-07-25T17:06:42.594Z,99924.81
2022-07-25T17:09:09.690Z,99925.63
2022-07-25T17:11:36.574Z,99919.16
2022-07-25T17:14:04.427Z,99920.84
2022-07-25T17:16:31.997Z,99923.19
2022-07-25T17:18:58.876Z,99917.53
2022-07-25T17:21:25.520Z,99911.88
2022-07-25T17:23:53.273Z,99910.66
2022-07-25T17:26:20.525Z,99921.09
2022-07-25T17:28:47.111Z,99917.16
2022-07-25T17:31:14.123Z,99920.28
2022-07-25T17:33:40.807Z,99919.66
2022-07-25T17:36:07.624Z,99918.41
2022-07-25T17:38:35.378Z,99916.38
2022-07-25T17:41:02.093Z,99918.25
2022-07-25T17:43:29.113Z,99913.25
2022-07-25T17:45:56.182Z,99915.13
2022-07-25T17:48:22.883Z,99909.03
2022-07-25T17:50:49.561Z,99910.75
2022-07-25T17:53:18.127Z,99910.94
2022-07-25T17:55:44.899Z,99918.88
2022-07-25T17:58:11.556Z,99914.28
2022-07-25T18:00:38.144Z,99909.94
2022-07-25T18:03:04.860Z,99908.28
2022-07-25T18:05:31.561Z,99914.50
2022-07-25T18:07:58.171Z,99909.31
2022-07-25T18:10:24.910Z,99912.84
2022-07-25T18:12:51.481Z,99904.34
2022-07-25T18:15:18.123Z,99900.34
2022-07-25T18:17:45.408Z,99897.62
2022-07-25T18:20:12.524Z,99896.16
2022-07-25T18:22:41.044Z,99900.34
2022-07-25T18:25:10.492Z,99894.06
2022-07-25T18:27:38.011Z,99897.19
2022-07-25T18:30:07.822Z,99898.22
2022-07-25T18:32:35.210Z,99894.25
2022-07-25T18:35:02.043Z,99899.69
2022-07-25T18:37:28.666Z,99892.75
2022-07-25T18:39:55.308Z,99887.31
2022-07-25T18:42:25.035Z,99890.66
2022-07-25T18:44:55.945Z,99884.81
2022-07-25T18:47:24.496Z,99880.25
2022-07-25T18:49:55.880Z,99890.03
2022-07-25T18:52:23.284Z,99884.81
2022-07-25T18:54:50.014Z,99890.03
2022-07-25T18:57:16.687Z,99890.41
2022-07-25T18:59:43.337Z,99897.72
2022-07-25T19:02:10.200Z,99896.63
2022-07-25T19:04:36.981Z,99897.06
2022-07-25T19:07:03.670Z,99898.28
2022-07-25T19:09:30.293Z,99900.34
2022-07-25T19:11:56.953Z,99898.41
2022-07-25T19:14:26.111Z,99896.31
2022-07-25T19:16:53.718Z,99895.88
2022-07-25T19:19:20.416Z,99901.09
2022-07-25T19:21:47.086Z,99895.44
2022-07-25T19:24:13.744Z,99899.38
2022-07-25T19:26:41.298Z,99900.19
2022-07-25T19:29:08.731Z,99892.88
2022-07-25T19:31:37.791Z,99887.84
2022-07-25T19:34:05.732Z,99893.84
2022-07-25T19:36:32.883Z,99896.06
2022-07-25T19:39:00.024Z,99887.69
2022-07-25T19:41:26.716Z,99888.94
2022-07-25T19:43:53.469Z,99892.22
2022-07-25T19:46:20.379Z,99888.06
2022-07-25T19:48:47.072Z,99883.62
2022-07-25T19:51:13.927Z,99889.44
2022-07-25T19:53:40.541Z,99892.13
2022-07-25T19:56:08.438Z,99887.13
2022-07-25T19:58:38.871Z,99886.03
2022-07-25T20:01:07.045Z,99886.87
2022-07-25T20:03:34.430Z,99887.09
2022-07-25T20:06:06.023Z,99898.69
2022-07-25T20:08:34.540Z,99890.88
2022-07-25T20:11:01.125Z,99893.78
2022-07-25T20:13:28.061Z,99886.50
2022-07-25T20:15:54.644Z,99887.13
2022-07-25T20:18:21.265Z,99888.78
2022-07-25T20:20:47.862Z,99884.38
2022-07-25T20:23:14.505Z,99886.41
2022-07-25T20:25:41.100Z,99886.78
2022-07-25T20:28:07.684Z,99893.22
2022-07-25T20:30:35.179Z,99899.41
2022-07-25T20:33:08.984Z,99892.53
2022-07-25T20:35:36.981Z,99890.84
2022-07-25T20:38:03.725Z,99890.84
2022-07-25T20:40:36.188Z,99895.00
2022-07-25T20:43:04.381Z,99888.78
2022-07-25T20:45:31.046Z,99891.44
2022-07-25T20:47:57.786Z,99892.66
2022-07-25T20:50:24.443Z,99888.28
2022-07-25T20:52:51.099Z,99890.28
2022-07-25T20:55:17.688Z,99887.13
2022-07-25T20:57:48.663Z,99891.69
2022-07-25T21:00:17.036Z,99896.78
2022-07-25T21:02:43.758Z,99895.69
2022-07-25T21:05:10.543Z,99895.06
2022-07-25T21:07:37.166Z,99892.91
2022-07-25T21:10:04.665Z,99888.09
2022-07-25T21:12:33.041Z,99884.28
2022-07-25T21:15:01.165Z,99887.56
2022-07-25T21:17:27.935Z,99886.25
2022-07-25T21:19:54.524Z,99882.09
2022-07-25T21:22:21.151Z,99875.19
2022-07-25T21:24:49.551Z,99886.75
2022-07-25T21:27:16.920Z,99883.78
2022-07-25T21:29:43.747Z,99885.34
2022-07-25T21:32:13.569Z,99884.88
2022-07-25T21:34:41.146Z,99888.13
2022-07-25T21:37:07.856Z,99874.00
2022-07-25T21:39:34.440Z,99878.28
2022-07-25T21:42:01.358Z,99891.12
2022-07-25T21:44:27.988Z,99881.72
2022-07-25T21:46:54.781Z,99879.03
2022-07-25T21:49:44.507Z,99874.50
2022-07-25T21:52:13.852Z,99872.16
2022-07-25T21:54:41.876Z,99870.41
2022-07-25T21:57:13.346Z,99875.78
2022-07-25T21:59:41.961Z,99878.41
2022-07-25T22:02:08.669Z,99874.22
2022-07-25T22:04:35.264Z,99882.31
2022-07-25T22:07:01.901Z,99877.47
2022-07-25T22:09:28.476Z,99874.78
2022-07-25T22:11:55.602Z,99873.47
2022-07-25T22:14:22.251Z,99871.94
2022-07-25T22:16:48.938Z,99875.03
2022-07-25T22:19:17.277Z,99865.47
2022-07-25T22:21:46.502Z,99875.19
2022-07-25T22:24:13.071Z,99874.28
2022-07-25T22:26:39.671Z,99872.59
2022-07-25T22:29:06.526Z,99877.50
2022-07-25T22:31:33.482Z,99868.97
2022-07-25T22:34:00.188Z,99864.78
2022-07-25T22:36:26.786Z,99872.41
2022-07-25T22:38:53.403Z,99874.62
2022-07-25T22:41:20.052Z,99877.66
2022-07-25T22:43:56.828Z,99881.22
2022-07-25T22:46:26.565Z,99882.13
2022-07-25T22:48:53.439Z,99881.81
2022-07-25T22:51:20.111Z,99888.50
2022-07-25T22:53:46.743Z,99892.78
2022-07-25T22:56:13.373Z,99893.81
2022-07-25T22:58:40.017Z,99894.56
2022-07-25T23:01:06.830Z,99894.44
2022-07-25T23:03:33.687Z,99894.44
2022-07-25T23:06:00.399Z,99896.75
2022-07-25T23:08:27.032Z,99892.41
2022-07-25T23:10:53.609Z,99894.97
2022-07-25T23:13:20.313Z,99897.66
2022-07-25T23:15:51.106Z,99903.09
2022-07-25T23:18:18.745Z,99907.00
2022-07-25T23:20:45.334Z,99910.22
2022-07-25T23:23:12.013Z,99912.59
2022-07-25T23:25:38.614Z,99916.47
2022-07-25T23:28:05.370Z,99914.81
2022-07-25T23:30:35.453Z,99911.66
2022-07-25T23:33:06.666Z,99911.47
2022-07-25T23:35:33.336Z,99919.53
2022-07-25T23:37:59.939Z,99923.91
2022-07-25T23:40:26.766Z,99924.72
2022-07-25T23:42:54.435Z,99922.25
2022-07-25T23:45:21.673Z,99929.66
2022-07-25T23:47:48.980Z,99935.03
2022-07-25T23:50:15.691Z,99926.28
2022-07-25T23:52:42.286Z,99926.41
2022-07-25T23:55:09.407Z,99918.50
2022-07-25T23:57:36.008Z,99914.16
